createdAt,value
2016-12-26T00:00:56.486Z,0
2016-12-26T00:01:57.015Z,0
2016-12-26T00:02:57.165Z,0
2016-12-26T00:03:56.905Z,0
2016-12-26T00:04:56.493Z,0
2016-12-26T00:05:57.632Z,0
2016-12-26T00:06:56.930Z,0
2016-12-26T00:07:56.857Z,0
2016-12-26T00:08:56.898Z,0
2016-12-26T00:09:57.308Z,0
2016-12-26T00:10:57.069Z,0
2016-12-26T00:11:56.220Z,0
2016-12-26T00:12:56.968Z,0
2016-12-26T00:13:57.025Z,0
2016-12-26T00:14:57.010Z,0
2016-12-26T00:15:56.681Z,0
2016-12-26T00:16:57.569Z,0
2016-12-26T00:17:57.510Z,0
2016-12-26T00:18:57.987Z,0
2016-12-26T00:19:57.222Z,0
2016-12-26T00:20:57.432Z,0
2016-12-26T00:21:58.058Z,0
2016-12-26T00:22:58.168Z,0
2016-12-26T00:23:56.535Z,0
2016-12-26T00:24:56.934Z,0
2016-12-26T00:25:56.761Z,0
2016-12-26T00:26:57.687Z,0
2016-12-26T00:27:57.876Z,0
2016-12-26T00:28:57.280Z,0
2016-12-26T00:29:56.661Z,0
2016-12-26T00:30:58.311Z,0
2016-12-26T00:31:57.059Z,0
2016-12-26T00:32:57.728Z,0
2016-12-26T00:33:56.889Z,0
2016-12-26T00:34:58.179Z,0
2016-12-26T00:35:57.225Z,0
2016-12-26T00:36:57.486Z,0
2016-12-26T00:37:57.536Z,0
2016-12-26T00:38:58.246Z,0
2016-12-26T00:39:57.524Z,0
2016-12-26T00:40:57.329Z,0
2016-12-26T00:41:57.024Z,0
2016-12-26T00:42:56.897Z,0
2016-12-26T00:43:57.933Z,0
2016-12-26T00:44:57.235Z,0
2016-12-26T00:45:58.600Z,0
2016-12-26T00:46:57.170Z,0
2016-12-26T00:47:58.931Z,0
2016-12-26T00:48:58.956Z,0
2016-12-26T00:49:57.940Z,0
2016-12-26T00:50:58.051Z,0
2016-12-26T00:51:58.024Z,0
2016-12-26T00:52:58.999Z,0
2016-12-26T00:53:58.197Z,0
2016-12-26T00:54:58.431Z,0
2016-12-26T00:55:57.207Z,0
2016-12-26T00:56:58.604Z,0
2016-12-26T00:57:57.664Z,0
2016-12-26T00:58:57.990Z,0
2016-12-26T00:59:58.249Z,0
2016-12-26T01:00:59.041Z,0
2016-12-26T01:01:57.796Z,0
2016-12-26T01:02:58.333Z,0
2016-12-26T01:03:57.650Z,0
2016-12-26T01:04:59.192Z,0
2016-12-26T01:05:57.352Z,0
2016-12-26T01:06:57.338Z,0
2016-12-26T01:07:57.728Z,0
2016-12-26T01:08:58.309Z,0
2016-12-26T01:09:58.739Z,0
2016-12-26T01:10:58.032Z,0
2016-12-26T01:11:58.686Z,0
2016-12-26T01:12:57.654Z,0
2016-12-26T01:13:58.815Z,0
2016-12-26T01:14:58.059Z,0
2016-12-26T01:15:57.891Z,0
2016-12-26T01:16:58.151Z,0
2016-12-26T01:17:57.981Z,0
2016-12-26T01:18:58.717Z,0
2016-12-26T01:19:59.123Z,0
2016-12-26T01:21:00.434Z,0
2016-12-26T01:21:58.307Z,0
2016-12-26T01:22:57.608Z,0
2016-12-26T01:23:58.014Z,0
2016-12-26T01:24:58.457Z,0
2016-12-26T01:25:58.570Z,0
2016-12-26T01:26:59.032Z,0
2016-12-26T01:27:59.301Z,0
2016-12-26T01:28:58.389Z,0
2016-12-26T01:29:59.352Z,0
2016-12-26T01:30:59.311Z,0
2016-12-26T01:31:59.300Z,0
2016-12-26T01:32:58.857Z,0
2016-12-26T01:33:58.230Z,0
2016-12-26T01:34:59.092Z,0
2016-12-26T01:35:58.613Z,0
2016-12-26T01:36:59.551Z,0
2016-12-26T01:37:58.366Z,0
2016-12-26T01:38:59.241Z,0
2016-12-26T01:39:58.230Z,0
2016-12-26T01:40:59.095Z,0
2016-12-26T01:41:59.130Z,0
2016-12-26T01:42:58.879Z,0
2016-12-26T01:43:59.628Z,0
2016-12-26T01:44:59.748Z,0
2016-12-26T01:45:59.455Z,0
2016-12-26T01:46:59.572Z,0
2016-12-26T01:47:58.601Z,0
2016-12-26T01:48:59.878Z,0
2016-12-26T01:49:58.927Z,0
2016-12-26T01:50:59.166Z,0
2016-12-26T01:51:58.993Z,0
2016-12-26T01:52:59.368Z,0
2016-12-26T01:53:59.402Z,0
2016-12-26T01:54:59.016Z,0
2016-12-26T01:55:59.431Z,0
2016-12-26T01:56:58.611Z,0
2016-12-26T01:57:58.444Z,0
2016-12-26T01:59:00.015Z,0
2016-12-26T01:59:59.287Z,0
2016-12-26T02:00:59.762Z,0
2016-12-26T02:01:58.567Z,0
2016-12-26T02:02:59.544Z,0
2016-12-26T02:03:59.686Z,0
2016-12-26T02:04:58.963Z,0
2016-12-26T02:05:59.455Z,0
2016-12-26T02:06:59.772Z,0
2016-12-26T02:07:59.740Z,0
2016-12-26T02:08:59.181Z,0
2016-12-26T02:09:58.979Z,0
2016-12-26T02:10:59.598Z,0
2016-12-26T02:12:00.040Z,0
2016-12-26T02:12:59.784Z,0
2016-12-26T02:13:59.756Z,0
2016-12-26T02:14:59.443Z,0
2016-12-26T02:15:59.738Z,0
2016-12-26T02:16:59.195Z,0
2016-12-26T02:17:58.577Z,0
2016-12-26T02:18:59.375Z,0
2016-12-26T02:19:59.409Z,0
2016-12-26T02:20:59.581Z,0
2016-12-26T02:22:00.115Z,0
2016-12-26T02:22:59.247Z,0
2016-12-26T02:23:59.459Z,0
2016-12-26T02:25:00.071Z,0
2016-12-26T02:25:59.015Z,0
2016-12-26T02:26:59.260Z,0
2016-12-26T02:27:59.442Z,0
2016-12-26T02:28:59.821Z,0
2016-12-26T02:29:59.045Z,0
2016-12-26T02:30:59.955Z,0
2016-12-26T02:31:59.581Z,0
2016-12-26T02:32:59.608Z,0
2016-12-26T02:34:00.088Z,0
2016-12-26T02:34:59.165Z,0
2016-12-26T02:35:59.828Z,0
2016-12-26T02:36:59.641Z,0
2016-12-26T02:37:59.479Z,0
2016-12-26T02:39:01.599Z,0
2016-12-26T02:39:59.554Z,0
2016-12-26T02:41:00.667Z,0
2016-12-26T02:42:00.389Z,0
2016-12-26T02:43:00.409Z,0
2016-12-26T02:43:59.119Z,0
2016-12-26T02:44:59.829Z,0
2016-12-26T02:46:00.193Z,0
2016-12-26T02:46:59.404Z,0
2016-12-26T02:48:00.331Z,0
2016-12-26T02:48:59.566Z,0
2016-12-26T02:49:59.851Z,0
2016-12-26T02:50:59.162Z,0
2016-12-26T02:51:59.414Z,0
2016-12-26T02:52:59.516Z,0
2016-12-26T02:53:59.652Z,0
2016-12-26T02:55:00.883Z,0
2016-12-26T02:56:00.208Z,0
2016-12-26T02:57:01.183Z,0
2016-12-26T02:57:59.473Z,0
2016-12-26T02:59:00.853Z,0
2016-12-26T03:00:00.558Z,0
2016-12-26T03:01:00.302Z,0
2016-12-26T03:02:00.029Z,0
2016-12-26T03:03:00.430Z,0
2016-12-26T03:04:00.255Z,0
2016-12-26T03:04:59.916Z,0
2016-12-26T03:05:59.698Z,0
2016-12-26T03:07:00.080Z,0
2016-12-26T03:08:00.332Z,0
2016-12-26T03:09:00.087Z,0
2016-12-26T03:09:59.947Z,0
2016-12-26T03:11:00.059Z,0
2016-12-26T03:12:00.484Z,0
2016-12-26T03:13:00.787Z,0
2016-12-26T03:14:01.630Z,0
2016-12-26T03:15:06.101Z,0
2016-12-26T03:15:59.790Z,0
2016-12-26T03:17:00.169Z,0
2016-12-26T03:18:00.634Z,0
2016-12-26T03:19:00.892Z,0
2016-12-26T03:19:59.833Z,0
2016-12-26T03:21:01.944Z,0
2016-12-26T03:22:00.147Z,0
2016-12-26T03:23:00.132Z,0
2016-12-26T03:23:59.743Z,0
2016-12-26T03:25:00.498Z,0
2016-12-26T03:26:00.593Z,0
2016-12-26T03:27:00.691Z,0
2016-12-26T03:28:00.815Z,0
2016-12-26T03:29:00.218Z,0
2016-12-26T03:30:01.675Z,0
2016-12-26T03:30:59.836Z,0
2016-12-26T03:32:01.178Z,0
2016-12-26T03:33:01.057Z,0
2016-12-26T03:34:00.425Z,0
2016-12-26T03:35:01.933Z,0
2016-12-26T03:36:00.977Z,0
2016-12-26T03:37:00.382Z,0
2016-12-26T03:38:00.533Z,0
2016-12-26T03:39:01.829Z,0
2016-12-26T03:40:00.834Z,0
2016-12-26T03:41:01.078Z,0
2016-12-26T03:42:00.702Z,0
2016-12-26T03:43:00.929Z,0
2016-12-26T03:44:00.728Z,0
2016-12-26T03:45:01.879Z,0
2016-12-26T03:46:01.036Z,0
2016-12-26T03:47:02.235Z,0
2016-12-26T03:48:00.954Z,0
2016-12-26T03:49:00.364Z,0
2016-12-26T03:50:00.888Z,0
2016-12-26T03:51:00.921Z,0
2016-12-26T03:52:00.279Z,0
2016-12-26T03:53:01.181Z,0
2016-12-26T03:54:01.298Z,0
2016-12-26T03:55:01.577Z,0
2016-12-26T03:56:01.050Z,0
2016-12-26T03:57:01.305Z,0
2016-12-26T03:58:00.883Z,0
2016-12-26T03:59:00.582Z,0
2016-12-26T04:00:02.307Z,0
2016-12-26T04:01:00.719Z,0
2016-12-26T04:02:01.862Z,0
2016-12-26T04:03:01.217Z,0
2016-12-26T04:04:02.459Z,0
2016-12-26T04:05:02.411Z,0
2016-12-26T04:06:00.705Z,0
2016-12-26T04:07:00.648Z,0
2016-12-26T04:08:01.514Z,0
2016-12-26T04:09:02.064Z,0
2016-12-26T04:10:01.583Z,0
2016-12-26T04:11:03.218Z,0
2016-12-26T04:12:01.947Z,0
2016-12-26T04:13:01.758Z,0
2016-12-26T04:14:01.829Z,0
2016-12-26T04:15:00.773Z,0
2016-12-26T04:16:01.681Z,0
2016-12-26T04:17:01.112Z,0
2016-12-26T04:18:01.528Z,0
2016-12-26T04:19:01.500Z,0
2016-12-26T04:20:00.897Z,0
2016-12-26T04:21:01.499Z,0
2016-12-26T04:22:01.512Z,0
2016-12-26T04:23:01.469Z,0
2016-12-26T04:24:02.083Z,0
2016-12-26T04:25:02.495Z,0
2016-12-26T04:26:01.962Z,0
2016-12-26T04:27:01.536Z,0
2016-12-26T04:28:02.333Z,0
2016-12-26T04:29:01.281Z,0
2016-12-26T04:30:01.560Z,0
2016-12-26T04:31:02.314Z,0
2016-12-26T04:32:01.453Z,0
2016-12-26T04:33:01.199Z,0
2016-12-26T04:34:02.544Z,0
2016-12-26T04:35:01.937Z,0
2016-12-26T04:36:02.014Z,0
2016-12-26T04:37:02.455Z,0
2016-12-26T04:38:01.339Z,0
2016-12-26T04:39:01.537Z,0
2016-12-26T04:40:01.277Z,0
2016-12-26T04:41:01.748Z,0
2016-12-26T04:42:02.636Z,0
2016-12-26T04:43:02.368Z,0
2016-12-26T04:44:01.873Z,0
2016-12-26T04:45:02.307Z,0
2016-12-26T04:46:02.184Z,0
2016-12-26T04:47:01.659Z,0
2016-12-26T04:48:02.635Z,0
2016-12-26T04:49:01.834Z,0
2016-12-26T04:50:03.124Z,0
2016-12-26T04:51:01.769Z,0
2016-12-26T04:52:02.587Z,0
2016-12-26T04:53:01.628Z,0
2016-12-26T04:54:02.344Z,0
2016-12-26T04:55:01.944Z,0
2016-12-26T04:56:02.300Z,0
2016-12-26T04:57:02.040Z,0
2016-12-26T04:58:01.986Z,0
2016-12-26T04:59:02.314Z,0
2016-12-26T05:00:02.996Z,0
2016-12-26T05:01:02.279Z,0
2016-12-26T05:02:02.674Z,0
2016-12-26T05:03:02.751Z,0
2016-12-26T05:04:04.166Z,0
2016-12-26T05:05:02.409Z,0
2016-12-26T05:06:02.147Z,0
2016-12-26T05:07:01.844Z,0
2016-12-26T05:08:02.148Z,0
2016-12-26T05:09:02.998Z,0
2016-12-26T05:10:03.363Z,0
2016-12-26T05:11:01.774Z,0
2016-12-26T05:12:02.540Z,0
2016-12-26T05:13:03.102Z,0
2016-12-26T05:14:03.503Z,0
2016-12-26T05:15:02.674Z,0
2016-12-26T05:16:02.828Z,0
2016-12-26T05:17:03.107Z,0
2016-12-26T05:18:03.145Z,0
2016-12-26T05:19:02.102Z,0
2016-12-26T05:20:02.902Z,0
2016-12-26T05:21:03.184Z,0
2016-12-26T05:22:02.647Z,0
2016-12-26T05:23:02.720Z,0
2016-12-26T05:24:02.263Z,0
2016-12-26T05:25:02.270Z,0
2016-12-26T05:26:03.176Z,0
2016-12-26T05:27:02.590Z,0
2016-12-26T05:28:02.667Z,0
2016-12-26T05:29:02.804Z,0
2016-12-26T05:30:02.384Z,0
2016-12-26T05:31:03.198Z,0
2016-12-26T05:32:04.353Z,0
2016-12-26T05:33:02.324Z,0
2016-12-26T05:34:02.472Z,0
2016-12-26T05:35:03.205Z,0
2016-12-26T05:36:02.641Z,0
2016-12-26T05:37:04.116Z,0
2016-12-26T05:38:03.116Z,0
2016-12-26T05:39:02.228Z,0
2016-12-26T05:40:02.381Z,0
2016-12-26T05:41:04.049Z,0
2016-12-26T05:42:03.610Z,0
2016-12-26T05:43:03.777Z,0
2016-12-26T05:44:03.331Z,0
2016-12-26T05:45:04.063Z,0
2016-12-26T05:46:04.005Z,0
2016-12-26T05:47:04.543Z,0
2016-12-26T05:48:03.261Z,0
2016-12-26T05:49:04.011Z,0
2016-12-26T05:50:01.953Z,0
2016-12-26T05:51:03.051Z,0
2016-12-26T05:52:02.753Z,0
2016-12-26T05:53:04.084Z,0
2016-12-26T05:54:03.062Z,0
2016-12-26T05:55:03.465Z,0
2016-12-26T05:56:03.451Z,0
2016-12-26T05:57:03.991Z,0
2016-12-26T05:58:05.008Z,0
2016-12-26T05:59:04.469Z,0
2016-12-26T06:00:04.392Z,0
2016-12-26T06:01:07.654Z,0
2016-12-26T06:02:05.913Z,0
2016-12-26T06:03:08.588Z,0
2016-12-26T06:04:06.366Z,0
2016-12-26T06:05:04.444Z,0
2016-12-26T06:06:05.367Z,0
2016-12-26T06:07:04.600Z,0
2016-12-26T06:08:05.592Z,0
2016-12-26T06:09:04.640Z,0
2016-12-26T06:10:06.106Z,0
2016-12-26T06:11:04.715Z,0
2016-12-26T06:12:05.663Z,0
2016-12-26T06:13:05.536Z,0
2016-12-26T06:14:04.840Z,0
2016-12-26T06:15:04.804Z,0
2016-12-26T06:16:04.970Z,0
2016-12-26T06:17:06.076Z,0
2016-12-26T06:18:05.645Z,0
2016-12-26T06:19:05.597Z,0
2016-12-26T06:20:05.611Z,0
2016-12-26T06:21:05.656Z,0
2016-12-26T06:22:06.026Z,0
2016-12-26T06:23:04.684Z,0
2016-12-26T06:24:05.650Z,0
2016-12-26T06:25:05.215Z,0
2016-12-26T06:26:05.170Z,0
2016-12-26T06:27:04.556Z,0
2016-12-26T06:28:04.576Z,0
2016-12-26T06:29:05.130Z,0
2016-12-26T06:30:05.358Z,0
2016-12-26T06:31:05.760Z,0
2016-12-26T06:32:05.515Z,0
2016-12-26T06:33:05.268Z,0
2016-12-26T06:34:07.700Z,0
2016-12-26T06:35:07.124Z,0
2016-12-26T06:36:04.855Z,0
2016-12-26T06:37:04.863Z,0
2016-12-26T06:38:05.298Z,0
2016-12-26T06:39:05.059Z,0
2016-12-26T06:40:06.289Z,0
2016-12-26T06:41:06.545Z,0
2016-12-26T06:42:06.787Z,0
2016-12-26T06:43:06.795Z,0
2016-12-26T06:44:05.391Z,0
2016-12-26T06:45:06.753Z,0
2016-12-26T06:46:08.267Z,0
2016-12-26T06:47:04.674Z,0
2016-12-26T06:48:04.123Z,0
2016-12-26T06:49:04.332Z,0
2016-12-26T06:50:05.132Z,0
2016-12-26T06:51:04.575Z,0
2016-12-26T06:52:06.406Z,0
2016-12-26T06:53:08.272Z,0
2016-12-26T06:54:06.182Z,0
2016-12-26T06:55:05.499Z,0
2016-12-26T06:56:06.866Z,0
2016-12-26T06:57:06.087Z,0
2016-12-26T06:58:06.042Z,0
2016-12-26T06:59:06.364Z,0
2016-12-26T07:00:04.612Z,0
2016-12-26T07:01:05.940Z,0
2016-12-26T07:02:05.128Z,0
2016-12-26T07:03:06.122Z,0
2016-12-26T07:04:08.058Z,0
2016-12-26T07:05:05.782Z,0
2016-12-26T07:06:08.722Z,0
2016-12-26T07:07:06.062Z,0
2016-12-26T07:08:06.030Z,0
2016-12-26T07:09:11.919Z,0
2016-12-26T07:11:05.379Z,0
2016-12-26T07:12:04.387Z,0
2016-12-26T07:13:03.617Z,0
2016-12-26T07:14:04.146Z,0
2016-12-26T07:15:05.190Z,0
2016-12-26T07:16:05.437Z,0
2016-12-26T07:17:05.560Z,0
2016-12-26T07:18:05.464Z,0
2016-12-26T07:19:06.492Z,0
2016-12-26T07:20:05.955Z,0
2016-12-26T07:21:05.821Z,0
2016-12-26T07:22:05.095Z,0
2016-12-26T07:23:05.547Z,5
2016-12-26T07:24:05.304Z,5
2016-12-26T07:25:06.355Z,5
2016-12-26T07:26:05.421Z,5
2016-12-26T07:27:05.679Z,5
2016-12-26T07:28:04.913Z,5
2016-12-26T07:29:06.038Z,5
2016-12-26T07:30:05.952Z,5
2016-12-26T07:31:04.832Z,5
2016-12-26T07:32:06.614Z,5
2016-12-26T07:33:06.033Z,10
2016-12-26T07:34:05.369Z,5
2016-12-26T07:35:06.499Z,5
2016-12-26T07:36:04.405Z,10
2016-12-26T07:37:05.729Z,10
2016-12-26T07:38:04.455Z,10
2016-12-26T07:39:05.419Z,10
2016-12-26T07:40:05.933Z,10
2016-12-26T07:41:05.897Z,10
2016-12-26T07:42:05.767Z,10
2016-12-26T07:43:05.123Z,10
2016-12-26T07:44:06.015Z,10
2016-12-26T07:45:06.277Z,15
2016-12-26T07:46:06.443Z,10
2016-12-26T07:47:04.319Z,10
2016-12-26T07:48:05.499Z,10
2016-12-26T07:49:05.901Z,10
2016-12-26T07:50:05.528Z,10
2016-12-26T07:51:05.688Z,10
2016-12-26T07:52:05.052Z,10
2016-12-26T07:53:05.608Z,10
2016-12-26T07:54:06.989Z,15
2016-12-26T07:55:06.029Z,20
2016-12-26T07:56:06.754Z,20
2016-12-26T07:57:05.992Z,15
2016-12-26T07:58:07.030Z,15
2016-12-26T08:00:05.199Z,20
2016-12-26T08:01:07.681Z,20
2016-12-26T08:02:07.073Z,20
2016-12-26T08:03:05.801Z,20
2016-12-26T08:04:05.299Z,20
2016-12-26T08:05:06.166Z,20
2016-12-26T08:06:05.262Z,25
2016-12-26T08:07:05.697Z,30
2016-12-26T08:08:06.862Z,40
2016-12-26T08:09:06.892Z,35
2016-12-26T08:10:08.446Z,35
2016-12-26T08:11:06.928Z,30
2016-12-26T08:12:05.866Z,40
2016-12-26T08:13:05.623Z,55
2016-12-26T08:14:05.319Z,45
2016-12-26T08:15:07.454Z,40
2016-12-26T08:16:05.642Z,40
2016-12-26T08:17:05.570Z,40
2016-12-26T08:18:05.559Z,45
2016-12-26T08:19:06.358Z,40
2016-12-26T08:20:06.333Z,50
2016-12-26T08:21:06.660Z,50
2016-12-26T08:22:06.254Z,50
2016-12-26T08:23:07.439Z,50
2016-12-26T08:24:05.933Z,45
2016-12-26T08:25:08.113Z,55
2016-12-26T08:26:06.224Z,65
2016-12-26T08:27:07.742Z,70
2016-12-26T08:28:06.547Z,65
2016-12-26T08:29:05.459Z,85
2016-12-26T08:30:06.467Z,105
2016-12-26T08:31:05.777Z,110
2016-12-26T08:32:11.975Z,105
2016-12-26T08:33:06.954Z,105
2016-12-26T08:34:06.708Z,115
2016-12-26T08:35:06.439Z,100
2016-12-26T08:36:06.537Z,105
2016-12-26T08:37:06.778Z,110
2016-12-26T08:38:05.933Z,100
2016-12-26T08:39:05.511Z,100
2016-12-26T08:40:05.916Z,115
2016-12-26T08:41:05.789Z,125
2016-12-26T08:42:05.894Z,110
2016-12-26T08:43:06.700Z,110
2016-12-26T08:44:07.178Z,90
2016-12-26T08:45:05.936Z,80
2016-12-26T08:46:06.172Z,85
2016-12-26T08:47:05.839Z,85
2016-12-26T08:48:07.025Z,95
2016-12-26T08:49:05.648Z,105
2016-12-26T08:50:05.855Z,120
2016-12-26T08:51:07.237Z,110
2016-12-26T08:52:06.870Z,110
2016-12-26T08:53:06.315Z,105
2016-12-26T08:54:06.135Z,105
2016-12-26T08:55:07.157Z,105
2016-12-26T08:56:07.778Z,115
2016-12-26T08:57:06.662Z,100
2016-12-26T08:58:06.254Z,115
2016-12-26T08:59:06.581Z,125
2016-12-26T09:00:07.208Z,135
2016-12-26T09:01:05.910Z,150
2016-12-26T09:02:07.932Z,175
2016-12-26T09:03:06.650Z,190
2016-12-26T09:04:05.678Z,200
2016-12-26T09:05:07.000Z,200
2016-12-26T09:06:07.018Z,165
2016-12-26T09:07:07.207Z,160
2016-12-26T09:08:05.976Z,105
2016-12-26T09:09:05.910Z,100
2016-12-26T09:10:06.272Z,90
2016-12-26T09:11:05.818Z,110
2016-12-26T09:12:05.602Z,155
2016-12-26T09:13:06.161Z,120
2016-12-26T09:14:07.656Z,110
2016-12-26T09:15:06.756Z,125
2016-12-26T09:16:06.758Z,155
2016-12-26T09:17:06.249Z,150
2016-12-26T09:18:09.715Z,145
2016-12-26T09:19:12.040Z,130
2016-12-26T09:20:10.736Z,120
2016-12-26T09:21:09.857Z,120
2016-12-26T09:22:12.487Z,110
2016-12-26T09:23:11.465Z,100
2016-12-26T09:24:09.060Z,90
2016-12-26T09:25:15.051Z,120
2016-12-26T09:27:12.261Z,165
2016-12-26T09:28:11.658Z,170
2016-12-26T09:29:10.432Z,160
2016-12-26T09:30:08.239Z,140
2016-12-26T09:31:06.812Z,155
2016-12-26T09:32:06.411Z,190
2016-12-26T09:33:08.024Z,170
2016-12-26T09:34:13.114Z,130
2016-12-26T09:35:07.850Z,105
2016-12-26T09:36:09.327Z,105
2016-12-26T09:37:07.766Z,90
2016-12-26T09:38:08.236Z,75
2016-12-26T09:39:07.735Z,95
2016-12-26T09:40:07.741Z,105
2016-12-26T09:41:07.260Z,105
2016-12-26T09:42:07.381Z,85
2016-12-26T09:43:08.355Z,75
2016-12-26T09:44:07.914Z,80
2016-12-26T09:45:06.982Z,90
2016-12-26T09:46:08.597Z,105
2016-12-26T09:47:07.694Z,120
2016-12-26T09:48:09.256Z,145
2016-12-26T09:49:07.774Z,120
2016-12-26T09:50:06.590Z,135
2016-12-26T09:51:06.825Z,145
2016-12-26T09:52:08.624Z,150
2016-12-26T09:53:08.438Z,175
2016-12-26T09:54:08.856Z,190
2016-12-26T09:55:08.249Z,180
2016-12-26T09:56:08.413Z,150
2016-12-26T09:57:07.463Z,125
2016-12-26T09:58:08.206Z,105
2016-12-26T09:59:08.079Z,95
2016-12-26T10:00:07.516Z,95
2016-12-26T10:01:08.773Z,65
2016-12-26T10:02:07.112Z,45
2016-12-26T10:03:09.393Z,50
2016-12-26T10:04:10.452Z,100
2016-12-26T10:05:08.423Z,155
2016-12-26T10:06:07.673Z,205
2016-12-26T10:07:07.541Z,255
2016-12-26T10:08:09.769Z,290
2016-12-26T10:09:11.094Z,320
2016-12-26T10:10:08.228Z,345
2016-12-26T10:11:07.683Z,395
2016-12-26T10:12:08.925Z,445
2016-12-26T10:13:09.378Z,520
2016-12-26T10:14:09.877Z,525
2016-12-26T10:15:10.505Z,460
2016-12-26T10:16:09.360Z,420
2016-12-26T10:17:08.903Z,430
2016-12-26T10:18:09.120Z,460
2016-12-26T10:19:09.684Z,455
2016-12-26T10:20:08.914Z,430
2016-12-26T10:21:08.160Z,420
2016-12-26T10:22:07.701Z,390
2016-12-26T10:23:14.519Z,345
2016-12-26T10:24:09.849Z,265
2016-12-26T10:25:16.364Z,215
2016-12-26T10:26:12.986Z,210
2016-12-26T10:27:14.600Z,210
2016-12-26T10:28:10.072Z,210
2016-12-26T10:29:08.639Z,220
2016-12-26T10:30:10.400Z,205
2016-12-26T10:31:11.060Z,175
2016-12-26T10:32:12.125Z,165
2016-12-26T10:33:13.856Z,175
2016-12-26T10:34:13.284Z,180
2016-12-26T10:35:09.302Z,160
2016-12-26T10:36:08.376Z,195
2016-12-26T10:37:07.815Z,215
2016-12-26T10:38:08.221Z,220
2016-12-26T10:39:10.097Z,235
2016-12-26T10:40:09.792Z,255
2016-12-26T10:41:11.653Z,255
2016-12-26T10:42:10.132Z,255
2016-12-26T10:43:11.202Z,250
2016-12-26T10:44:08.651Z,230
2016-12-26T10:45:07.405Z,210
2016-12-26T10:46:09.022Z,200
2016-12-26T10:47:10.872Z,205
2016-12-26T10:48:09.564Z,185
2016-12-26T10:50:12.766Z,190
2016-12-26T10:51:24.802Z,160
2016-12-26T10:52:10.708Z,150
2016-12-26T10:53:07.960Z,145
2016-12-26T10:54:08.062Z,150
2016-12-26T10:55:08.631Z,165
2016-12-26T10:56:21.974Z,165
2016-12-26T10:57:12.075Z,155
2016-12-26T10:58:13.137Z,155
2016-12-26T10:59:08.822Z,175
2016-12-26T11:00:08.574Z,190
2016-12-26T11:01:08.579Z,215
2016-12-26T11:02:08.201Z,230
2016-12-26T11:03:08.053Z,220
2016-12-26T11:04:09.277Z,230
2016-12-26T11:05:08.039Z,255
2016-12-26T11:06:08.903Z,280
2016-12-26T11:07:08.814Z,305
2016-12-26T11:08:09.168Z,310
2016-12-26T11:09:07.669Z,285
2016-12-26T11:10:07.393Z,270
2016-12-26T11:11:08.382Z,275
2016-12-26T11:12:08.070Z,275
2016-12-26T11:13:08.824Z,260
2016-12-26T11:14:09.190Z,245
2016-12-26T11:15:08.912Z,245
2016-12-26T11:16:09.453Z,225
2016-12-26T11:17:09.270Z,185
2016-12-26T11:18:09.444Z,160
2016-12-26T11:19:08.242Z,145
2016-12-26T11:20:08.420Z,145
2016-12-26T11:21:08.866Z,140
2016-12-26T11:22:08.364Z,135
2016-12-26T11:23:08.085Z,125
2016-12-26T11:24:09.577Z,110
2016-12-26T11:25:08.160Z,105
2016-12-26T11:26:08.923Z,100
2016-12-26T11:27:09.125Z,105
2016-12-26T11:28:09.206Z,115
2016-12-26T11:29:08.798Z,115
2016-12-26T11:30:09.501Z,130
2016-12-26T11:31:08.879Z,155
2016-12-26T11:32:10.459Z,160
2016-12-26T11:33:09.523Z,155
2016-12-26T11:34:09.227Z,155
2016-12-26T11:35:09.145Z,170
2016-12-26T11:36:09.506Z,180
2016-12-26T11:37:09.204Z,195
2016-12-26T11:38:09.751Z,215
2016-12-26T11:39:09.261Z,200
2016-12-26T11:40:09.687Z,185
2016-12-26T11:41:08.545Z,200
2016-12-26T11:42:09.791Z,205
2016-12-26T11:43:08.882Z,195
2016-12-26T11:44:09.143Z,195
2016-12-26T11:45:08.766Z,210
2016-12-26T11:46:09.957Z,200
2016-12-26T11:47:08.936Z,185
2016-12-26T11:48:09.344Z,175
2016-12-26T11:49:08.962Z,190
2016-12-26T11:50:09.207Z,190
2016-12-26T11:51:09.119Z,175
2016-12-26T11:52:09.545Z,165
2016-12-26T11:53:10.462Z,170
2016-12-26T11:54:08.613Z,175
2016-12-26T11:55:09.452Z,180
2016-12-26T11:56:09.792Z,180
2016-12-26T11:57:08.430Z,185
2016-12-26T11:58:08.889Z,195
2016-12-26T11:59:09.820Z,215
2016-12-26T12:00:09.279Z,255
2016-12-26T12:01:08.951Z,300
2016-12-26T12:02:08.819Z,340
2016-12-26T12:03:09.778Z,320
2016-12-26T12:04:09.232Z,270
2016-12-26T12:05:09.959Z,260
2016-12-26T12:06:09.811Z,275
2016-12-26T12:07:09.838Z,255
2016-12-26T12:08:10.045Z,215
2016-12-26T12:09:10.545Z,210
2016-12-26T12:10:08.905Z,250
2016-12-26T12:11:09.546Z,280
2016-12-26T12:12:10.313Z,280
2016-12-26T12:13:09.890Z,265
2016-12-26T12:14:09.380Z,285
2016-12-26T12:15:08.808Z,335
2016-12-26T12:16:09.501Z,385
2016-12-26T12:17:10.822Z,360
2016-12-26T12:18:09.862Z,325
2016-12-26T12:19:10.591Z,310
2016-12-26T12:20:09.588Z,290
2016-12-26T12:21:10.594Z,285
2016-12-26T12:22:10.449Z,280
2016-12-26T12:23:09.934Z,285
2016-12-26T12:24:10.351Z,320
2016-12-26T12:25:10.157Z,335
2016-12-26T12:26:09.767Z,375
2016-12-26T12:27:09.460Z,345
2016-12-26T12:28:10.447Z,300
2016-12-26T12:29:10.051Z,300
2016-12-26T12:30:09.317Z,270
2016-12-26T12:31:09.902Z,260
2016-12-26T12:32:09.819Z,280
2016-12-26T12:33:10.552Z,265
2016-12-26T12:34:09.093Z,205
2016-12-26T12:35:11.013Z,185
2016-12-26T12:36:09.408Z,205
2016-12-26T12:37:09.741Z,265
2016-12-26T12:38:09.509Z,290
2016-12-26T12:39:09.178Z,220
2016-12-26T12:40:10.008Z,195
2016-12-26T12:41:09.930Z,195
2016-12-26T12:42:10.379Z,230
2016-12-26T12:43:09.544Z,270
2016-12-26T12:44:09.572Z,255
2016-12-26T12:45:11.234Z,305
2016-12-26T12:46:09.537Z,335
2016-12-26T12:47:10.470Z,325
2016-12-26T12:48:10.380Z,260
2016-12-26T12:49:10.016Z,235
2016-12-26T12:50:10.677Z,245
2016-12-26T12:51:10.571Z,220
2016-12-26T12:52:10.596Z,200
2016-12-26T12:53:09.895Z,220
2016-12-26T12:54:09.958Z,300
2016-12-26T12:55:09.640Z,425
2016-12-26T12:56:10.330Z,415
2016-12-26T12:57:09.669Z,310
2016-12-26T12:58:10.890Z,290
2016-12-26T12:59:10.934Z,260
2016-12-26T13:00:09.961Z,340
2016-12-26T13:01:09.809Z,295
2016-12-26T13:02:09.846Z,265
2016-12-26T13:03:10.880Z,225
2016-12-26T13:04:10.514Z,235
2016-12-26T13:05:10.793Z,260
2016-12-26T13:06:10.746Z,280
2016-12-26T13:07:11.508Z,250
2016-12-26T13:08:10.483Z,210
2016-12-26T13:09:10.266Z,225
2016-12-26T13:10:10.919Z,210
2016-12-26T13:11:10.790Z,175
2016-12-26T13:12:10.347Z,165
2016-12-26T13:13:10.906Z,320
2016-12-26T13:14:10.813Z,330
2016-12-26T13:15:10.795Z,250
2016-12-26T13:16:10.622Z,235
2016-12-26T13:17:10.970Z,205
2016-12-26T13:18:11.106Z,205
2016-12-26T13:19:10.545Z,230
2016-12-26T13:20:10.895Z,315
2016-12-26T13:21:10.711Z,380
2016-12-26T13:22:11.258Z,340
2016-12-26T13:23:10.720Z,260
2016-12-26T13:24:10.215Z,215
2016-12-26T13:25:11.731Z,200
2016-12-26T13:26:10.447Z,165
2016-12-26T13:27:11.348Z,155
2016-12-26T13:28:10.256Z,185
2016-12-26T13:29:10.638Z,220
2016-12-26T13:30:10.900Z,245
2016-12-26T13:31:10.828Z,280
2016-12-26T13:32:10.658Z,215
2016-12-26T13:33:11.039Z,185
2016-12-26T13:34:11.164Z,170
2016-12-26T13:35:11.134Z,175
2016-12-26T13:36:10.590Z,180
2016-12-26T13:37:11.035Z,165
2016-12-26T13:38:10.384Z,150
2016-12-26T13:39:10.557Z,150
2016-12-26T13:40:10.580Z,145
2016-12-26T13:41:11.337Z,160
2016-12-26T13:42:11.038Z,225
2016-12-26T13:43:10.827Z,230
2016-12-26T13:44:10.476Z,180
2016-12-26T13:45:11.316Z,185
2016-12-26T13:46:11.004Z,180
2016-12-26T13:47:11.115Z,195
2016-12-26T13:48:12.031Z,210
2016-12-26T13:49:12.291Z,205
2016-12-26T13:50:10.671Z,180
2016-12-26T13:51:11.411Z,165
2016-12-26T13:52:12.349Z,205
2016-12-26T13:53:11.931Z,215
2016-12-26T13:54:12.045Z,275
2016-12-26T13:55:11.321Z,285
2016-12-26T13:56:11.456Z,270
2016-12-26T13:57:11.905Z,240
2016-12-26T13:58:11.810Z,205
2016-12-26T13:59:11.394Z,190
2016-12-26T14:00:10.680Z,175
2016-12-26T14:01:11.002Z,160
2016-12-26T14:02:11.367Z,150
2016-12-26T14:03:11.833Z,150
2016-12-26T14:04:10.882Z,145
2016-12-26T14:05:12.526Z,145
2016-12-26T14:06:11.218Z,155
2016-12-26T14:07:11.332Z,160
2016-12-26T14:08:10.627Z,180
2016-12-26T14:09:11.383Z,180
2016-12-26T14:10:12.624Z,165
2016-12-26T14:11:11.951Z,155
2016-12-26T14:12:13.460Z,140
2016-12-26T14:13:12.784Z,135
2016-12-26T14:14:11.820Z,140
2016-12-26T14:15:11.703Z,145
2016-12-26T14:16:15.916Z,140
2016-12-26T14:17:11.169Z,140
2016-12-26T14:18:11.447Z,155
2016-12-26T14:19:12.284Z,165
2016-12-26T14:20:11.038Z,150
2016-12-26T14:21:11.692Z,130
2016-12-26T14:22:11.311Z,115
2016-12-26T14:23:11.710Z,105
2016-12-26T14:24:12.037Z,105